sensor_id;sensor_type;location;lat;lon;timestamp;temperature;humidity
12907;DHT22;6521;50.498;8.474;2022-08-19T00:02:26;20.51;67.07
12907;DHT22;6521;50.498;8.474;2022-08-19T00:04:56;20.45;67.23
12907;DHT22;6521;50.498;8.474;2022-08-19T00:07:27;20.44;67.29
12907;DHT22;6521;50.498;8.474;2022-08-19T00:09:57;20.45;67.32
12907;DHT22;6521;50.498;8.474;2022-08-19T00:12:28;20.42;67.45
12907;DHT22;6521;50.498;8.474;2022-08-19T00:14:59;20.34;67.68
12907;DHT22;6521;50.498;8.474;2022-08-19T00:17:30;20.34;67.86
12907;DHT22;6521;50.498;8.474;2022-08-19T00:20:00;20.34;67.88
12907;DHT22;6521;50.498;8.474;2022-08-19T00:22:31;20.29;67.81
12907;DHT22;6521;50.498;8.474;2022-08-19T00:25:05;20.29;68.01
12907;DHT22;6521;50.498;8.474;2022-08-19T00:27:36;20.25;68.12
12907;DHT22;6521;50.498;8.474;2022-08-19T00:30:07;20.28;68.07
12907;DHT22;6521;50.498;8.474;2022-08-19T00:32:39;20.29;68.19
12907;DHT22;6521;50.498;8.474;2022-08-19T00:35:10;20.28;68.32
12907;DHT22;6521;50.498;8.474;2022-08-19T00:37:41;20.24;68.49
12907;DHT22;6521;50.498;8.474;2022-08-19T00:40:15;20.29;68.31
12907;DHT22;6521;50.498;8.474;2022-08-19T00:42:46;20.21;68.64
12907;DHT22;6521;50.498;8.474;2022-08-19T00:45:19;20.21;68.51
12907;DHT22;6521;50.498;8.474;2022-08-19T00:47:50;20.16;68.66
12907;DHT22;6521;50.498;8.474;2022-08-19T00:50:21;20.16;68.69
12907;DHT22;6521;50.498;8.474;2022-08-19T00:52:52;20.10;68.88
12907;DHT22;6521;50.498;8.474;2022-08-19T00:55:26;20.08;68.96
12907;DHT22;6521;50.498;8.474;2022-08-19T00:58:02;20.11;68.99
12907;DHT22;6521;50.498;8.474;2022-08-19T01:00:35;20.08;68.97
12907;DHT22;6521;50.498;8.474;2022-08-19T01:03:10;20.04;69.19
12907;DHT22;6521;50.498;8.474;2022-08-19T01:05:43;19.96;69.43
12907;DHT22;6521;50.498;8.474;2022-08-19T01:08:17;19.90;69.67
12907;DHT22;6521;50.498;8.474;2022-08-19T01:10:54;19.87;69.94
12907;DHT22;6521;50.498;8.474;2022-08-19T01:13:29;19.83;70.05
12907;DHT22;6521;50.498;8.474;2022-08-19T01:16:07;19.79;70.31
12907;DHT22;6521;50.498;8.474;2022-08-19T01:18:40;19.77;70.40
12907;DHT22;6521;50.498;8.474;2022-08-19T01:21:36;19.74;70.56
12907;DHT22;6521;50.498;8.474;2022-08-19T01:24:08;19.74;70.61
12907;DHT22;6521;50.498;8.474;2022-08-19T01:26:42;19.67;70.79
12907;DHT22;6521;50.498;8.474;2022-08-19T01:29:13;19.69;70.85
12907;DHT22;6521;50.498;8.474;2022-08-19T01:31:44;19.69;70.93
12907;DHT22;6521;50.498;8.474;2022-08-19T01:34:15;19.67;71.00
12907;DHT22;6521;50.498;8.474;2022-08-19T01:36:46;19.65;71.17
12907;DHT22;6521;50.498;8.474;2022-08-19T01:39:21;19.67;71.18
12907;DHT22;6521;50.498;8.474;2022-08-19T01:41:52;19.73;71.10
12907;DHT22;6521;50.498;8.474;2022-08-19T01:44:24;19.71;71.13
12907;DHT22;6521;50.498;8.474;2022-08-19T01:46:55;19.73;71.08
12907;DHT22;6521;50.498;8.474;2022-08-19T01:49:26;19.76;71.07
12907;DHT22;6521;50.498;8.474;2022-08-19T01:51:59;19.79;70.90
12907;DHT22;6521;50.498;8.474;2022-08-19T01:54:30;19.74;71.08
12907;DHT22;6521;50.498;8.474;2022-08-19T01:57:05;19.71;71.16
12907;DHT22;6521;50.498;8.474;2022-08-19T01:59:37;19.67;71.31
12907;DHT22;6521;50.498;8.474;2022-08-19T02:02:09;19.69;71.29
12907;DHT22;6521;50.498;8.474;2022-08-19T02:04:39;19.69;71.35
12907;DHT22;6521;50.498;8.474;2022-08-19T02:07:10;19.70;71.28
12907;DHT22;6521;50.498;8.474;2022-08-19T02:09:41;19.70;71.27
12907;DHT22;6521;50.498;8.474;2022-08-19T02:12:12;19.65;71.37
12907;DHT22;6521;50.498;8.474;2022-08-19T02:14:42;19.58;71.62
12907;DHT22;6521;50.498;8.474;2022-08-19T02:17:13;19.56;71.70
12907;DHT22;6521;50.498;8.474;2022-08-19T02:19:43;19.53;71.90
12907;DHT22;6521;50.498;8.474;2022-08-19T02:22:14;19.45;72.14
12907;DHT22;6521;50.498;8.474;2022-08-19T02:24:45;19.43;72.31
12907;DHT22;6521;50.498;8.474;2022-08-19T02:27:16;19.38;72.54
12907;DHT22;6521;50.498;8.474;2022-08-19T02:29:48;19.33;72.82
12907;DHT22;6521;50.498;8.474;2022-08-19T02:32:19;19.35;72.89
12907;DHT22;6521;50.498;8.474;2022-08-19T02:34:50;19.30;73.27
12907;DHT22;6521;50.498;8.474;2022-08-19T02:37:21;19.29;73.28
12907;DHT22;6521;50.498;8.474;2022-08-19T02:40:10;19.25;73.46
12907;DHT22;6521;50.498;8.474;2022-08-19T02:42:41;19.22;73.59
12907;DHT22;6521;50.498;8.474;2022-08-19T02:45:13;19.22;73.92
12907;DHT22;6521;50.498;8.474;2022-08-19T02:47:44;19.21;73.87
12907;DHT22;6521;50.498;8.474;2022-08-19T02:50:14;19.25;73.95
12907;DHT22;6521;50.498;8.474;2022-08-19T02:52:45;19.28;73.92
12907;DHT22;6521;50.498;8.474;2022-08-19T02:55:16;19.26;73.98
12907;DHT22;6521;50.498;8.474;2022-08-19T02:57:47;19.25;74.11
12907;DHT22;6521;50.498;8.474;2022-08-19T03:00:17;19.26;74.15
12907;DHT22;6521;50.498;8.474;2022-08-19T03:02:49;19.25;74.13
12907;DHT22;6521;50.498;8.474;2022-08-19T03:05:20;19.28;74.12
12907;DHT22;6521;50.498;8.474;2022-08-19T03:07:50;19.26;74.15
12907;DHT22;6521;50.498;8.474;2022-08-19T03:10:21;19.26;74.17
12907;DHT22;6521;50.498;8.474;2022-08-19T03:12:51;19.28;74.27
12907;DHT22;6521;50.498;8.474;2022-08-19T03:15:22;19.25;74.23
12907;DHT22;6521;50.498;8.474;2022-08-19T03:17:53;19.26;74.28
12907;DHT22;6521;50.498;8.474;2022-08-19T03:20:24;19.28;74.37
12907;DHT22;6521;50.498;8.474;2022-08-19T03:22:56;19.23;74.46
12907;DHT22;6521;50.498;8.474;2022-08-19T03:25:26;19.23;74.55
12907;DHT22;6521;50.498;8.474;2022-08-19T03:27:57;19.21;74.67
12907;DHT22;6521;50.498;8.474;2022-08-19T03:30:27;19.15;74.80
12907;DHT22;6521;50.498;8.474;2022-08-19T03:32:58;19.16;74.84
12907;DHT22;6521;50.498;8.474;2022-08-19T03:35:29;19.09;75.03
12907;DHT22;6521;50.498;8.474;2022-08-19T03:37:59;19.07;75.20
12907;DHT22;6521;50.498;8.474;2022-08-19T03:40:30;19.08;75.38
12907;DHT22;6521;50.498;8.474;2022-08-19T03:43:05;19.08;75.34
12907;DHT22;6521;50.498;8.474;2022-08-19T03:45:36;19.08;75.50
12907;DHT22;6521;50.498;8.474;2022-08-19T03:48:07;19.07;75.46
12907;DHT22;6521;50.498;8.474;2022-08-19T03:50:39;19.05;75.51
12907;DHT22;6521;50.498;8.474;2022-08-19T03:53:10;19.09;75.53
12907;DHT22;6521;50.498;8.474;2022-08-19T03:55:40;19.11;75.49
12907;DHT22;6521;50.498;8.474;2022-08-19T03:58:11;19.11;75.52
12907;DHT22;6521;50.498;8.474;2022-08-19T04:00:42;19.11;75.51
12907;DHT22;6521;50.498;8.474;2022-08-19T04:03:13;19.12;75.59
12907;DHT22;6521;50.498;8.474;2022-08-19T04:05:45;19.11;75.60
12907;DHT22;6521;50.498;8.474;2022-08-19T04:08:16;19.11;75.62
12907;DHT22;6521;50.498;8.474;2022-08-19T04:10:50;19.12;75.59
12907;DHT22;6521;50.498;8.474;2022-08-19T04:13:21;19.09;75.66
12907;DHT22;6521;50.498;8.474;2022-08-19T04:15:52;19.09;75.71
12907;DHT22;6521;50.498;8.474;2022-08-19T04:18:23;19.12;75.71
12907;DHT22;6521;50.498;8.474;2022-08-19T04:20:54;19.11;75.80
12907;DHT22;6521;50.498;8.474;2022-08-19T04:23:25;19.14;75.75
12907;DHT22;6521;50.498;8.474;2022-08-19T04:25:58;19.15;75.67
12907;DHT22;6521;50.498;8.474;2022-08-19T04:28:29;19.11;75.75
12907;DHT22;6521;50.498;8.474;2022-08-19T04:31:00;19.11;75.79
12907;DHT22;6521;50.498;8.474;2022-08-19T04:33:30;19.11;75.76
12907;DHT22;6521;50.498;8.474;2022-08-19T04:36:01;19.12;75.81
12907;DHT22;6521;50.498;8.474;2022-08-19T04:38:33;19.15;75.74
12907;DHT22;6521;50.498;8.474;2022-08-19T04:41:03;19.12;75.82
12907;DHT22;6521;50.498;8.474;2022-08-19T04:43:53;19.08;75.93
12907;DHT22;6521;50.498;8.474;2022-08-19T04:46:25;19.04;76.11
12907;DHT22;6521;50.498;8.474;2022-08-19T04:48:56;19.01;76.27
12907;DHT22;6521;50.498;8.474;2022-08-19T04:51:27;19.00;76.37
12907;DHT22;6521;50.498;8.474;2022-08-19T04:53:58;19.01;76.29
12907;DHT22;6521;50.498;8.474;2022-08-19T04:56:30;18.95;76.45
12907;DHT22;6521;50.498;8.474;2022-08-19T04:59:01;19.00;76.31
12907;DHT22;6521;50.498;8.474;2022-08-19T05:01:34;19.02;76.20
12907;DHT22;6521;50.498;8.474;2022-08-19T05:04:06;19.02;76.30
12907;DHT22;6521;50.498;8.474;2022-08-19T05:06:39;19.00;76.28
12907;DHT22;6521;50.498;8.474;2022-08-19T05:09:09;18.98;76.29
12907;DHT22;6521;50.498;8.474;2022-08-19T05:11:40;19.01;76.35
12907;DHT22;6521;50.498;8.474;2022-08-19T05:14:11;19.02;76.26
12907;DHT22;6521;50.498;8.474;2022-08-19T05:16:43;19.05;76.30
12907;DHT22;6521;50.498;8.474;2022-08-19T05:19:13;19.08;76.27
12907;DHT22;6521;50.498;8.474;2022-08-19T05:22:02;19.14;76.18
12907;DHT22;6521;50.498;8.474;2022-08-19T05:24:52;19.15;76.15
12907;DHT22;6521;50.498;8.474;2022-08-19T05:27:22;19.16;76.13
12907;DHT22;6521;50.498;8.474;2022-08-19T05:29:53;19.18;76.12
12907;DHT22;6521;50.498;8.474;2022-08-19T05:32:23;19.23;75.94
12907;DHT22;6521;50.498;8.474;2022-08-19T05:34:54;19.23;75.88
12907;DHT22;6521;50.498;8.474;2022-08-19T05:37:25;19.28;75.85
12907;DHT22;6521;50.498;8.474;2022-08-19T05:39:57;19.29;75.52
12907;DHT22;6521;50.498;8.474;2022-08-19T05:42:28;19.33;75.54
12907;DHT22;6521;50.498;8.474;2022-08-19T05:44:59;19.39;75.37
12907;DHT22;6521;50.498;8.474;2022-08-19T05:47:29;19.43;75.29
12907;DHT22;6521;50.498;8.474;2022-08-19T05:50:00;19.49;75.23
12907;DHT22;6521;50.498;8.474;2022-08-19T05:52:32;19.53;75.24
12907;DHT22;6521;50.498;8.474;2022-08-19T05:55:02;19.63;75.05
12907;DHT22;6521;50.498;8.474;2022-08-19T05:57:33;19.60;74.92
12907;DHT22;6521;50.498;8.474;2022-08-19T06:00:05;19.66;74.86
12907;DHT22;6521;50.498;8.474;2022-08-19T06:02:42;19.74;74.54
12907;DHT22;6521;50.498;8.474;2022-08-19T06:05:13;19.83;74.38
12907;DHT22;6521;50.498;8.474;2022-08-19T06:07:43;19.84;74.37
12907;DHT22;6521;50.498;8.474;2022-08-19T06:10:14;19.93;74.20
12907;DHT22;6521;50.498;8.474;2022-08-19T06:12:44;20.01;74.01
12907;DHT22;6521;50.498;8.474;2022-08-19T06:15:15;20.06;73.55
12907;DHT22;6521;50.498;8.474;2022-08-19T06:17:46;20.07;73.65
12907;DHT22;6521;50.498;8.474;2022-08-19T06:20:17;20.14;73.83
12907;DHT22;6521;50.498;8.474;2022-08-19T06:22:49;20.27;73.44
12907;DHT22;6521;50.498;8.474;2022-08-19T06:25:20;20.38;72.96
12907;DHT22;6521;50.498;8.474;2022-08-19T06:27:51;20.44;72.71
12907;DHT22;6521;50.498;8.474;2022-08-19T06:30:22;20.49;72.59
12907;DHT22;6521;50.498;8.474;2022-08-19T06:32:52;20.58;72.44
12907;DHT22;6521;50.498;8.474;2022-08-19T06:35:23;20.65;72.22
12907;DHT22;6521;50.498;8.474;2022-08-19T06:37:54;20.69;72.43
12907;DHT22;6521;50.498;8.474;2022-08-19T06:40:25;20.73;72.39
12907;DHT22;6521;50.498;8.474;2022-08-19T06:42:57;20.86;71.61
12907;DHT22;6521;50.498;8.474;2022-08-19T06:45:30;20.95;71.30
12907;DHT22;6521;50.498;8.474;2022-08-19T06:48:01;20.90;71.22
12907;DHT22;6521;50.498;8.474;2022-08-19T06:50:31;20.97;71.62
12907;DHT22;6521;50.498;8.474;2022-08-19T06:53:02;21.06;70.69
12907;DHT22;6521;50.498;8.474;2022-08-19T06:55:33;21.14;70.53
12907;DHT22;6521;50.498;8.474;2022-08-19T06:58:04;21.23;70.42
12907;DHT22;6521;50.498;8.474;2022-08-19T07:00:36;21.31;70.38
12907;DHT22;6521;50.498;8.474;2022-08-19T07:03:07;21.38;69.77
12907;DHT22;6521;50.498;8.474;2022-08-19T07:05:40;21.37;69.54
12907;DHT22;6521;50.498;8.474;2022-08-19T07:08:11;21.38;69.62
12907;DHT22;6521;50.498;8.474;2022-08-19T07:10:43;21.48;69.45
12907;DHT22;6521;50.498;8.474;2022-08-19T07:13:14;21.55;69.20
12907;DHT22;6521;50.498;8.474;2022-08-19T07:15:45;21.59;68.78
12907;DHT22;6521;50.498;8.474;2022-08-19T07:18:19;21.68;68.92
12907;DHT22;6521;50.498;8.474;2022-08-19T07:20:50;21.78;68.14
12907;DHT22;6521;50.498;8.474;2022-08-19T07:23:20;21.93;66.41
12907;DHT22;6521;50.498;8.474;2022-08-19T07:25:51;21.91;66.87
12907;DHT22;6521;50.498;8.474;2022-08-19T07:28:22;22.06;66.51
12907;DHT22;6521;50.498;8.474;2022-08-19T07:30:53;22.08;66.49
12907;DHT22;6521;50.498;8.474;2022-08-19T07:33:23;22.09;66.18
12907;DHT22;6521;50.498;8.474;2022-08-19T07:35:54;22.09;66.05
12907;DHT22;6521;50.498;8.474;2022-08-19T07:38:25;22.17;65.76
12907;DHT22;6521;50.498;8.474;2022-08-19T07:40:56;22.17;65.54
12907;DHT22;6521;50.498;8.474;2022-08-19T07:43:27;22.14;65.85
12907;DHT22;6521;50.498;8.474;2022-08-19T07:45:58;22.33;65.24
12907;DHT22;6521;50.498;8.474;2022-08-19T07:48:29;22.33;65.35
12907;DHT22;6521;50.498;8.474;2022-08-19T07:51:05;22.40;65.46
12907;DHT22;6521;50.498;8.474;2022-08-19T07:53:36;22.43;64.91
12907;DHT22;6521;50.498;8.474;2022-08-19T07:56:07;22.56;64.19
12907;DHT22;6521;50.498;8.474;2022-08-19T07:58:42;22.61;63.76
12907;DHT22;6521;50.498;8.474;2022-08-19T08:01:19;22.68;63.26
12907;DHT22;6521;50.498;8.474;2022-08-19T08:03:50;22.71;63.59
12907;DHT22;6521;50.498;8.474;2022-08-19T08:06:40;22.80;63.15
12907;DHT22;6521;50.498;8.474;2022-08-19T08:09:32;22.98;62.84
12907;DHT22;6521;50.498;8.474;2022-08-19T08:12:14;23.05;62.08
12907;DHT22;6521;50.498;8.474;2022-08-19T08:14:49;23.09;61.52
12907;DHT22;6521;50.498;8.474;2022-08-19T08:17:23;23.12;60.84
12907;DHT22;6521;50.498;8.474;2022-08-19T08:19:55;23.12;60.74
12907;DHT22;6521;50.498;8.474;2022-08-19T08:22:26;23.16;60.62
12907;DHT22;6521;50.498;8.474;2022-08-19T08:25:19;23.26;60.29
12907;DHT22;6521;50.498;8.474;2022-08-19T08:27:50;23.32;59.91
12907;DHT22;6521;50.498;8.474;2022-08-19T08:30:23;23.39;60.29
12907;DHT22;6521;50.498;8.474;2022-08-19T08:32:54;23.56;60.00
12907;DHT22;6521;50.498;8.474;2022-08-19T08:35:25;23.63;59.06
12907;DHT22;6521;50.498;8.474;2022-08-19T08:37:56;23.74;58.94
12907;DHT22;6521;50.498;8.474;2022-08-19T08:40:28;23.83;58.91
12907;DHT22;6521;50.498;8.474;2022-08-19T08:46:03;24.03;56.99
12907;DHT22;6521;50.498;8.474;2022-08-19T08:51:11;24.14;57.31
12907;DHT22;6521;50.498;8.474;2022-08-19T08:53:44;24.31;56.81
12907;DHT22;6521;50.498;8.474;2022-08-19T08:56:16;24.51;56.21
12907;DHT22;6521;50.498;8.474;2022-08-19T08:58:54;24.82;55.56
12907;DHT22;6521;50.498;8.474;2022-08-19T09:01:27;24.86;54.56
12907;DHT22;6521;50.498;8.474;2022-08-19T09:03:58;24.86;54.84
12907;DHT22;6521;50.498;8.474;2022-08-19T09:09:20;25.09;54.11
12907;DHT22;6521;50.498;8.474;2022-08-19T09:12:06;25.31;53.54
12907;DHT22;6521;50.498;8.474;2022-08-19T09:17:21;25.23;52.41
12907;DHT22;6521;50.498;8.474;2022-08-19T09:22:39;25.15;53.33
12907;DHT22;6521;50.498;8.474;2022-08-19T09:25:14;25.33;53.30
12907;DHT22;6521;50.498;8.474;2022-08-19T09:27:45;25.80;51.58
12907;DHT22;6521;50.498;8.474;2022-08-19T09:30:25;26.03;50.44
12907;DHT22;6521;50.498;8.474;2022-08-19T09:32:56;26.37;50.00
12907;DHT22;6521;50.498;8.474;2022-08-19T09:35:28;26.69;49.56
12907;DHT22;6521;50.498;8.474;2022-08-19T09:37:59;26.91;48.75
12907;DHT22;6521;50.498;8.474;2022-08-19T09:40:31;27.15;48.36
12907;DHT22;6521;50.498;8.474;2022-08-19T09:43:01;27.02;48.43
12907;DHT22;6521;50.498;8.474;2022-08-19T09:45:32;27.34;48.19
12907;DHT22;6521;50.498;8.474;2022-08-19T09:48:03;27.74;46.66
12907;DHT22;6521;50.498;8.474;2022-08-19T09:50:35;28.04;45.70
12907;DHT22;6521;50.498;8.474;2022-08-19T09:53:08;28.14;45.61
12907;DHT22;6521;50.498;8.474;2022-08-19T09:55:43;28.24;45.53
12907;DHT22;6521;50.498;8.474;2022-08-19T09:58:14;28.74;44.63
12907;DHT22;6521;50.498;8.474;2022-08-19T10:00:44;28.96;44.40
12907;DHT22;6521;50.498;8.474;2022-08-19T10:03:17;29.24;42.25
12907;DHT22;6521;50.498;8.474;2022-08-19T10:05:47;29.61;41.33
12907;DHT22;6521;50.498;8.474;2022-08-19T10:08:21;29.07;42.19
12907;DHT22;6521;50.498;8.474;2022-08-19T10:10:52;28.95;43.20
12907;DHT22;6521;50.498;8.474;2022-08-19T10:13:25;29.27;41.63
12907;DHT22;6521;50.498;8.474;2022-08-19T10:16:06;29.70;40.02
12907;DHT22;6521;50.498;8.474;2022-08-19T10:18:38;29.92;40.32
12907;DHT22;6521;50.498;8.474;2022-08-19T10:21:15;29.89;39.66
12907;DHT22;6521;50.498;8.474;2022-08-19T10:23:48;29.15;40.81
12907;DHT22;6521;50.498;8.474;2022-08-19T10:26:29;28.94;40.42
12907;DHT22;6521;50.498;8.474;2022-08-19T10:29:00;29.10;40.32
12907;DHT22;6521;50.498;8.474;2022-08-19T10:31:32;29.33;40.81
12907;DHT22;6521;50.498;8.474;2022-08-19T10:34:03;29.60;39.47
12907;DHT22;6521;50.498;8.474;2022-08-19T10:36:35;29.98;38.47
12907;DHT22;6521;50.498;8.474;2022-08-19T10:39:08;30.13;38.19
12907;DHT22;6521;50.498;8.474;2022-08-19T10:41:40;30.12;37.88
12907;DHT22;6521;50.498;8.474;2022-08-19T10:44:13;30.46;37.48
12907;DHT22;6521;50.498;8.474;2022-08-19T10:46:44;30.83;37.01
12907;DHT22;6521;50.498;8.474;2022-08-19T10:49:17;30.64;36.74
12907;DHT22;6521;50.498;8.474;2022-08-19T10:51:49;30.43;37.24
12907;DHT22;6521;50.498;8.474;2022-08-19T10:54:38;30.98;36.19
12907;DHT22;6521;50.498;8.474;2022-08-19T10:57:30;31.29;35.83
12907;DHT22;6521;50.498;8.474;2022-08-19T11:00:03;31.61;35.03
12907;DHT22;6521;50.498;8.474;2022-08-19T11:02:34;31.38;35.86
12907;DHT22;6521;50.498;8.474;2022-08-19T11:05:05;31.62;34.86
12907;DHT22;6521;50.498;8.474;2022-08-19T11:07:38;30.56;36.27
12907;DHT22;6521;50.498;8.474;2022-08-19T11:10:10;29.49;37.38
12907;DHT22;6521;50.498;8.474;2022-08-19T11:12:41;28.96;38.70
12907;DHT22;6521;50.498;8.474;2022-08-19T11:15:12;28.65;38.62
12907;DHT22;6521;50.498;8.474;2022-08-19T11:17:43;28.82;38.36
12907;DHT22;6521;50.498;8.474;2022-08-19T11:20:14;29.67;35.15
12907;DHT22;6521;50.498;8.474;2022-08-19T11:22:45;30.11;34.87
12907;DHT22;6521;50.498;8.474;2022-08-19T11:25:16;30.39;34.44
12907;DHT22;6521;50.498;8.474;2022-08-19T11:27:46;30.12;35.38
12907;DHT22;6521;50.498;8.474;2022-08-19T11:30:21;30.47;35.32
12907;DHT22;6521;50.498;8.474;2022-08-19T11:32:51;30.71;34.29
12907;DHT22;6521;50.498;8.474;2022-08-19T11:35:22;30.62;34.52
12907;DHT22;6521;50.498;8.474;2022-08-19T11:37:53;30.95;33.56
12907;DHT22;6521;50.498;8.474;2022-08-19T11:40:24;31.11;32.93
12907;DHT22;6521;50.498;8.474;2022-08-19T11:42:55;30.91;33.45
12907;DHT22;6521;50.498;8.474;2022-08-19T11:45:27;31.50;33.94
12907;DHT22;6521;50.498;8.474;2022-08-19T11:47:58;31.83;32.57
12907;DHT22;6521;50.498;8.474;2022-08-19T11:50:28;31.79;31.85
12907;DHT22;6521;50.498;8.474;2022-08-19T11:52:59;32.10;31.40
12907;DHT22;6521;50.498;8.474;2022-08-19T11:55:30;32.26;30.79
12907;DHT22;6521;50.498;8.474;2022-08-19T11:58:00;31.96;31.69
12907;DHT22;6521;50.498;8.474;2022-08-19T12:00:32;31.96;31.62
12907;DHT22;6521;50.498;8.474;2022-08-19T12:03:06;31.72;32.37
12907;DHT22;6521;50.498;8.474;2022-08-19T12:05:38;32.05;32.08
12907;DHT22;6521;50.498;8.474;2022-08-19T12:08:08;32.31;32.02
12907;DHT22;6521;50.498;8.474;2022-08-19T12:10:40;32.48;30.90
12907;DHT22;6521;50.498;8.474;2022-08-19T12:13:13;32.47;30.52
12907;DHT22;6521;50.498;8.474;2022-08-19T12:15:49;32.12;30.67
12907;DHT22;6521;50.498;8.474;2022-08-19T12:18:20;31.99;31.26
12907;DHT22;6521;50.498;8.474;2022-08-19T12:20:51;32.26;30.99
12907;DHT22;6521;50.498;8.474;2022-08-19T12:23:22;32.94;30.74
12907;DHT22;6521;50.498;8.474;2022-08-19T12:25:53;32.85;30.66
12907;DHT22;6521;50.498;8.474;2022-08-19T12:28:25;32.65;30.50
12907;DHT22;6521;50.498;8.474;2022-08-19T12:30:56;31.90;31.46
12907;DHT22;6521;50.498;8.474;2022-08-19T12:33:27;31.63;31.88
12907;DHT22;6521;50.498;8.474;2022-08-19T12:36:08;31.17;31.72
12907;DHT22;6521;50.498;8.474;2022-08-19T12:38:40;31.06;31.46
12907;DHT22;6521;50.498;8.474;2022-08-19T12:41:13;31.29;31.59
12907;DHT22;6521;50.498;8.474;2022-08-19T12:43:45;31.49;30.95
12907;DHT22;6521;50.498;8.474;2022-08-19T12:46:16;31.02;32.20
12907;DHT22;6521;50.498;8.474;2022-08-19T12:48:47;30.80;32.40
12907;DHT22;6521;50.498;8.474;2022-08-19T12:51:18;30.35;33.02
12907;DHT22;6521;50.498;8.474;2022-08-19T12:53:50;30.04;33.45
12907;DHT22;6521;50.498;8.474;2022-08-19T12:56:21;29.57;33.68
12907;DHT22;6521;50.498;8.474;2022-08-19T12:58:51;29.29;34.22
12907;DHT22;6521;50.498;8.474;2022-08-19T13:01:22;28.89;34.32
12907;DHT22;6521;50.498;8.474;2022-08-19T13:03:52;28.88;33.92
12907;DHT22;6521;50.498;8.474;2022-08-19T13:06:23;28.61;34.58
12907;DHT22;6521;50.498;8.474;2022-08-19T13:08:54;28.68;35.07
12907;DHT22;6521;50.498;8.474;2022-08-19T13:11:25;28.45;35.65
12907;DHT22;6521;50.498;8.474;2022-08-19T13:13:56;28.29;36.19
12907;DHT22;6521;50.498;8.474;2022-08-19T13:16:27;28.45;35.57
12907;DHT22;6521;50.498;8.474;2022-08-19T13:18:58;28.85;34.51
12907;DHT22;6521;50.498;8.474;2022-08-19T13:21:29;29.44;33.88
12907;DHT22;6521;50.498;8.474;2022-08-19T13:24:00;30.01;32.17
12907;DHT22;6521;50.498;8.474;2022-08-19T13:26:31;30.23;31.37
12907;DHT22;6521;50.498;8.474;2022-08-19T13:29:02;30.35;31.34
12907;DHT22;6521;50.498;8.474;2022-08-19T13:31:51;30.98;31.56
12907;DHT22;6521;50.498;8.474;2022-08-19T13:34:41;31.53;30.88
12907;DHT22;6521;50.498;8.474;2022-08-19T13:37:11;31.52;30.83
12907;DHT22;6521;50.498;8.474;2022-08-19T13:39:42;31.39;31.13
12907;DHT22;6521;50.498;8.474;2022-08-19T13:42:15;31.42;31.57
12907;DHT22;6521;50.498;8.474;2022-08-19T13:44:48;31.38;30.87
12907;DHT22;6521;50.498;8.474;2022-08-19T13:47:20;30.98;30.86
12907;DHT22;6521;50.498;8.474;2022-08-19T13:49:51;30.37;32.27
12907;DHT22;6521;50.498;8.474;2022-08-19T13:52:22;30.06;32.74
12907;DHT22;6521;50.498;8.474;2022-08-19T13:54:53;29.29;34.02
12907;DHT22;6521;50.498;8.474;2022-08-19T13:57:24;29.24;34.76
12907;DHT22;6521;50.498;8.474;2022-08-19T13:59:55;28.88;35.90
12907;DHT22;6521;50.498;8.474;2022-08-19T14:02:26;28.57;36.43
12907;DHT22;6521;50.498;8.474;2022-08-19T14:04:58;28.47;36.41
12907;DHT22;6521;50.498;8.474;2022-08-19T14:07:29;28.36;36.16
12907;DHT22;6521;50.498;8.474;2022-08-19T14:10:00;28.52;35.90
12907;DHT22;6521;50.498;8.474;2022-08-19T14:12:31;28.31;36.79
12907;DHT22;6521;50.498;8.474;2022-08-19T14:15:04;28.24;37.53
12907;DHT22;6521;50.498;8.474;2022-08-19T14:17:40;28.41;36.76
12907;DHT22;6521;50.498;8.474;2022-08-19T14:20:13;28.49;36.93
12907;DHT22;6521;50.498;8.474;2022-08-19T14:22:47;28.45;37.16
12907;DHT22;6521;50.498;8.474;2022-08-19T14:25:22;28.54;36.95
12907;DHT22;6521;50.498;8.474;2022-08-19T14:27:53;28.85;36.54
12907;DHT22;6521;50.498;8.474;2022-08-19T14:30:30;29.54;35.49
12907;DHT22;6521;50.498;8.474;2022-08-19T14:33:02;30.00;33.82
12907;DHT22;6521;50.498;8.474;2022-08-19T14:35:33;30.29;33.39
12907;DHT22;6521;50.498;8.474;2022-08-19T14:38:06;30.42;32.71
12907;DHT22;6521;50.498;8.474;2022-08-19T14:40:44;30.62;32.03
12907;DHT22;6521;50.498;8.474;2022-08-19T14:43:16;30.90;32.65
12907;DHT22;6521;50.498;8.474;2022-08-19T14:45:48;30.94;31.61
12907;DHT22;6521;50.498;8.474;2022-08-19T14:48:19;30.87;31.41
12907;DHT22;6521;50.498;8.474;2022-08-19T14:50:52;31.02;31.96
12907;DHT22;6521;50.498;8.474;2022-08-19T14:53:22;31.27;31.01
12907;DHT22;6521;50.498;8.474;2022-08-19T14:55:53;30.83;31.66
12907;DHT22;6521;50.498;8.474;2022-08-19T14:58:24;30.83;31.94
12907;DHT22;6521;50.498;8.474;2022-08-19T15:00:57;30.55;31.87
12907;DHT22;6521;50.498;8.474;2022-08-19T15:03:28;30.26;32.45
12907;DHT22;6521;50.498;8.474;2022-08-19T15:06:01;30.09;32.45
12907;DHT22;6521;50.498;8.474;2022-08-19T15:08:34;30.00;32.29
12907;DHT22;6521;50.498;8.474;2022-08-19T15:11:09;30.09;32.36
12907;DHT22;6521;50.498;8.474;2022-08-19T15:13:41;30.35;31.98
12907;DHT22;6521;50.498;8.474;2022-08-19T15:16:12;30.37;31.43
12907;DHT22;6521;50.498;8.474;2022-08-19T15:18:46;30.55;31.19
12907;DHT22;6521;50.498;8.474;2022-08-19T15:21:20;30.69;31.37
12907;DHT22;6521;50.498;8.474;2022-08-19T15:23:52;30.77;30.55
12907;DHT22;6521;50.498;8.474;2022-08-19T15:26:23;30.77;30.29
12907;DHT22;6521;50.498;8.474;2022-08-19T15:28:56;30.92;30.61
12907;DHT22;6521;50.498;8.474;2022-08-19T15:31:28;30.94;30.40
12907;DHT22;6521;50.498;8.474;2022-08-19T15:33:59;31.11;30.66
12907;DHT22;6521;50.498;8.474;2022-08-19T15:36:30;31.10;30.51
12907;DHT22;6521;50.498;8.474;2022-08-19T15:39:01;31.00;30.69
12907;DHT22;6521;50.498;8.474;2022-08-19T15:41:31;30.86;31.14
12907;DHT22;6521;50.498;8.474;2022-08-19T15:44:05;30.60;31.47
12907;DHT22;6521;50.498;8.474;2022-08-19T15:46:41;30.59;31.38
12907;DHT22;6521;50.498;8.474;2022-08-19T15:49:15;30.70;31.05
12907;DHT22;6521;50.498;8.474;2022-08-19T15:51:48;30.37;31.08
12907;DHT22;6521;50.498;8.474;2022-08-19T15:54:20;30.33;30.79
12907;DHT22;6521;50.498;8.474;2022-08-19T15:56:51;30.31;31.18
12907;DHT22;6521;50.498;8.474;2022-08-19T15:59:40;30.39;31.58
12907;DHT22;6521;50.498;8.474;2022-08-19T16:02:30;30.26;32.11
12907;DHT22;6521;50.498;8.474;2022-08-19T16:05:23;30.31;32.33
12907;DHT22;6521;50.498;8.474;2022-08-19T16:08:12;30.42;31.57
12907;DHT22;6521;50.498;8.474;2022-08-19T16:10:44;30.11;32.20
12907;DHT22;6521;50.498;8.474;2022-08-19T16:13:15;30.28;32.15
12907;DHT22;6521;50.498;8.474;2022-08-19T16:15:46;30.56;31.75
12907;DHT22;6521;50.498;8.474;2022-08-19T16:18:16;30.49;31.57
12907;DHT22;6521;50.498;8.474;2022-08-19T16:20:47;30.29;32.25
12907;DHT22;6521;50.498;8.474;2022-08-19T16:23:18;30.19;31.86
12907;DHT22;6521;50.498;8.474;2022-08-19T16:25:48;30.12;31.86
12907;DHT22;6521;50.498;8.474;2022-08-19T16:28:19;30.22;31.67
12907;DHT22;6521;50.498;8.474;2022-08-19T16:30:52;29.98;31.61
12907;DHT22;6521;50.498;8.474;2022-08-19T16:33:23;29.84;32.18